Time;durP1;ratioP1;P1;durP2;ratioP2;P2;SDS_P1;SDS_P2;PMS_P1;PMS_P2;Temp;Humidity;BMP_temperature;BMP_pressure;BME280_temperature;BME280_humidity;BME280_pressure;Samples;Min_cycle;Max_cycle;Signal;HPM_P1;HPM_P2
2021/12/06 00:02:01;;;;;;;8.65;1.25;;;20.80;99.90;;;;;;5073960;28;20196;-75
2021/12/06 00:04:37;;;;;;;8.80;1.92;;;20.80;99.90;;;;;;5074522;28;20185;-74
2021/12/06 00:07:11;;;;;;;7.10;1.15;;;21.00;99.90;;;;;;5074499;28;20209;-75
2021/12/06 00:09:42;;;;;;;5.38;1.00;;;21.00;99.90;;;;;;5073567;28;20203;-74
2021/12/06 00:12:14;;;;;;;9.30;1.42;;;21.00;99.90;;;;;;5074930;28;20539;-73
2021/12/06 00:14:44;;;;;;;7.10;1.25;;;21.20;99.90;;;;;;5074372;28;20248;-73
2021/12/06 00:17:19;;;;;;;7.50;1.05;;;21.30;99.90;;;;;;5074728;28;20189;-73
2021/12/06 00:19:51;;;;;;;9.45;1.42;;;21.40;99.90;;;;;;5073782;28;20196;-73
2021/12/06 00:22:23;;;;;;;11.70;1.20;;;21.60;99.90;;;;;;5074508;28;20196;-74
2021/12/06 00:24:55;;;;;;;5.20;1.00;;;21.60;99.90;;;;;;5066093;28;20236;-74
2021/12/06 00:27:27;;;;;;;6.60;1.05;;;21.60;99.90;;;;;;5065199;28;20192;-73
2021/12/06 00:29:59;;;;;;;8.93;1.00;;;21.60;99.90;;;;;;5055686;28;20213;-74
2021/12/06 00:32:30;;;;;;;6.57;1.10;;;21.80;99.90;;;;;;5065920;28;20205;-73
2021/12/06 00:35:05;;;;;;;8.20;1.02;;;22.00;99.90;;;;;;5072208;28;20216;-73
2021/12/06 00:37:42;;;;;;;9.27;1.20;;;21.90;99.90;;;;;;5073986;28;20286;-73
2021/12/06 00:40:17;;;;;;;5.57;1.00;;;21.60;99.90;;;;;;5065972;28;20194;-73
2021/12/06 00:42:47;;;;;;;7.28;0.98;;;21.50;99.90;;;;;;5073551;28;20220;-75
2021/12/06 00:45:18;;;;;;;7.72;1.40;;;21.40;99.90;;;;;;5066053;28;20185;-75
2021/12/06 00:47:50;;;;;;;7.80;1.17;;;21.40;99.90;;;;;;5074000;28;20189;-74
2021/12/06 00:50:24;;;;;;;8.70;1.20;;;21.30;99.90;;;;;;5065511;28;20196;-73
2021/12/06 00:52:55;;;;;;;9.18;1.17;;;21.30;99.90;;;;;;5073513;28;20199;-74
2021/12/06 00:55:27;;;;;;;9.57;1.40;;;21.30;99.90;;;;;;5073677;28;20213;-74
2021/12/06 00:57:58;;;;;;;10.18;1.45;;;21.40;99.90;;;;;;5064955;28;20189;-74
2021/12/06 01:00:34;;;;;;;8.77;1.25;;;21.40;99.90;;;;;;5073537;28;20228;-75
2021/12/06 01:03:05;;;;;;;4.57;1.13;;;21.30;99.90;;;;;;5073542;28;20195;-74
2021/12/06 01:05:39;;;;;;;5.97;1.10;;;21.30;99.90;;;;;;5069038;28;20254;-74
2021/12/06 01:08:10;;;;;;;8.02;1.20;;;21.20;99.90;;;;;;5062873;28;20193;-75
2021/12/06 01:10:42;;;;;;;10.27;1.40;;;21.40;99.90;;;;;;5065336;28;20212;-74
2021/12/06 01:13:16;;;;;;;7.53;1.10;;;21.50;99.90;;;;;;5073086;28;20185;-74
2021/12/06 01:15:47;;;;;;;6.50;1.38;;;21.60;99.90;;;;;;5067046;28;20673;-74
2021/12/06 01:18:21;;;;;;;6.72;1.30;;;21.60;99.90;;;;;;5070707;28;20212;-75
2021/12/06 01:21:06;;;;;;;4.75;1.08;;;21.50;99.90;;;;;;5071756;28;20188;-75
2021/12/06 01:23:49;;;;;;;8.82;0.95;;;21.50;99.90;;;;;;5067674;28;20190;-74
2021/12/06 01:26:38;;;;;;;4.45;1.10;;;21.60;99.90;;;;;;5069273;28;20358;-74
2021/12/06 01:29:36;;;;;;;8.73;1.10;;;21.70;99.90;;;;;;5064427;28;20278;-75
2021/12/06 01:32:15;;;;;;;8.90;1.20;;;21.70;99.90;;;;;;5067918;28;20254;-74
2021/12/06 01:40:26;;;;;;;7.95;1.00;;;21.70;99.90;;;;;;5066834;28;20204;-74
2021/12/06 01:42:57;;;;;;;10.68;1.20;;;21.60;99.90;;;;;;5066623;28;20231;-74
2021/12/06 01:45:27;;;;;;;8.05;1.27;;;21.60;99.90;;;;;;5071793;28;20201;-74
2021/12/06 01:47:58;;;;;;;7.70;1.25;;;21.60;99.90;;;;;;5062801;28;20197;-76
2021/12/06 01:50:30;;;;;;;10.10;1.50;;;21.70;99.90;;;;;;5065424;28;20199;-75
2021/12/06 01:53:06;;;;;;;8.48;1.35;;;21.80;99.90;;;;;;5071319;28;20710;-74
2021/12/06 01:55:39;;;;;;;4.75;1.00;;;22.00;99.90;;;;;;5067475;28;20217;-75
2021/12/06 01:58:11;;;;;;;5.88;1.00;;;22.20;99.90;;;;;;5071927;28;20227;-75
2021/12/06 02:00:47;;;;;;;11.70;1.55;;;22.30;99.90;;;;;;5071768;28;20237;-75
2021/12/06 02:03:19;;;;;;;7.35;1.08;;;22.30;99.90;;;;;;5072406;28;20216;-75
2021/12/06 02:05:51;;;;;;;7.30;1.10;;;22.20;99.90;;;;;;5071700;28;20193;-76
2021/12/06 02:08:24;;;;;;;6.82;1.30;;;22.20;99.90;;;;;;5068011;28;20215;-75
2021/12/06 02:11:00;;;;;;;10.65;1.27;;;22.10;99.90;;;;;;5071353;28;20665;-76
2021/12/06 02:13:38;;;;;;;8.43;1.30;;;22.10;99.90;;;;;;5072016;28;20193;-75
2021/12/06 02:16:09;;;;;;;5.25;1.13;;;21.90;99.90;;;;;;5071565;28;20282;-75
2021/12/06 02:18:45;;;;;;;9.25;1.20;;;21.80;99.90;;;;;;5072390;28;20686;-75
2021/12/06 02:21:20;;;;;;;10.93;1.35;;;21.60;99.90;;;;;;5070461;28;20189;-75
2021/12/06 02:23:54;;;;;;;6.80;1.23;;;21.50;99.90;;;;;;5071502;28;20189;-74
2021/12/06 02:26:27;;;;;;;7.65;1.20;;;21.50;99.90;;;;;;5072036;28;20254;-75
2021/12/06 02:29:00;;;;;;;5.38;1.10;;;21.40;99.90;;;;;;5071544;28;20200;-74
2021/12/06 02:31:31;;;;;;;7.13;1.13;;;21.40;99.90;;;;;;5072376;28;20208;-74
2021/12/06 02:34:03;;;;;;;4.47;1.00;;;21.40;99.90;;;;;;5071040;28;20189;-76
2021/12/06 02:36:36;;;;;;;8.27;1.08;;;21.30;99.90;;;;;;5069787;28;20272;-74
2021/12/06 02:39:08;;;;;;;7.25;1.05;;;21.20;99.90;;;;;;5071088;28;20659;-73
2021/12/06 02:41:39;;;;;;;8.05;1.23;;;21.20;99.90;;;;;;5071054;28;20220;-75
2021/12/06 02:44:10;;;;;;;6.93;1.33;;;21.10;99.90;;;;;;5070703;28;21636;-76
2021/12/06 02:46:42;;;;;;;9.70;1.17;;;21.10;99.90;;;;;;5070960;28;20641;-74
2021/12/06 02:49:13;;;;;;;6.65;1.08;;;21.10;99.90;;;;;;5070525;28;20193;-76
2021/12/06 02:51:46;;;;;;;7.22;1.20;;;21.10;99.90;;;;;;5075444;28;20189;-74
2021/12/06 02:54:18;;;;;;;6.70;1.10;;;21.20;99.90;;;;;;5074344;28;20204;-74
2021/12/06 02:57:06;;;;;;;7.53;0.90;;;21.20;99.90;;;;;;5075204;28;20185;-75
2021/12/06 02:59:37;;;;;;;6.07;1.00;;;21.20;99.90;;;;;;5071081;28;20266;-76
2021/12/06 03:02:11;;;;;;;12.13;1.13;;;21.20;99.90;;;;;;5074449;28;20203;-74
2021/12/06 03:04:43;;;;;;;5.47;1.13;;;21.10;99.90;;;;;;5075475;28;20215;-74
2021/12/06 03:07:20;;;;;;;5.25;0.90;;;21.10;99.90;;;;;;5074970;28;20188;-75
2021/12/06 03:09:54;;;;;;;4.20;0.90;;;21.00;99.90;;;;;;5075594;28;20268;-75
2021/12/06 03:12:28;;;;;;;12.05;1.40;;;21.10;99.90;;;;;;5074759;28;20761;-75
2021/12/06 03:15:01;;;;;;;8.15;1.30;;;21.10;99.90;;;;;;5070186;28;20221;-74
2021/12/06 03:17:32;;;;;;;7.47;1.20;;;21.10;99.90;;;;;;5074250;28;20197;-75
2021/12/06 03:20:11;;;;;;;4.00;1.20;;;21.10;99.90;;;;;;5067714;28;20194;-74
2021/12/06 03:22:47;;;;;;;10.35;1.30;;;21.10;99.90;;;;;;5069024;28;20658;-74
2021/12/06 03:25:19;;;;;;;8.77;1.20;;;21.10;99.90;;;;;;5072657;28;20192;-74
2021/12/06 03:27:50;;;;;;;5.47;1.10;;;21.00;99.90;;;;;;5072754;28;20196;-74
2021/12/06 03:30:21;;;;;;;7.80;1.23;;;21.10;99.90;;;;;;5074443;28;20608;-76
2021/12/06 03:32:52;;;;;;;5.28;1.08;;;21.10;99.90;;;;;;5072883;28;20193;-75
2021/12/06 03:35:23;;;;;;;5.82;1.02;;;21.00;99.90;;;;;;5071451;28;20754;-75
2021/12/06 03:37:55;;;;;;;4.45;0.80;;;21.10;99.90;;;;;;5074087;28;20185;-75
2021/12/06 03:40:26;;;;;;;7.43;1.15;;;21.00;99.90;;;;;;5068269;28;20199;-76
2021/12/06 03:42:56;;;;;;;5.05;1.00;;;20.90;99.90;;;;;;5070453;28;20232;-76
2021/12/06 03:45:27;;;;;;;6.63;1.20;;;20.90;99.90;;;;;;5068463;28;20238;-75
2021/12/06 03:47:58;;;;;;;9.45;1.88;;;20.90;99.90;;;;;;5072153;28;20185;-76
2021/12/06 03:50:29;;;;;;;4.38;0.90;;;20.80;99.90;;;;;;5070115;28;20197;-75
2021/12/06 03:53:02;;;;;;;5.35;0.98;;;20.80;99.90;;;;;;5065593;28;20185;-76
2021/12/06 03:55:32;;;;;;;5.88;1.10;;;20.80;99.90;;;;;;5068910;28;20219;-76
2021/12/06 03:58:03;;;;;;;7.80;1.25;;;20.80;99.90;;;;;;5069192;28;20185;-75
2021/12/06 04:00:34;;;;;;;8.00;1.23;;;20.80;99.90;;;;;;5069267;28;20224;-76
2021/12/06 04:03:05;;;;;;;10.68;1.30;;;20.80;99.90;;;;;;5070619;28;20216;-75
2021/12/06 04:05:37;;;;;;;7.05;0.90;;;20.70;99.90;;;;;;5067758;28;20200;-77
2021/12/06 04:08:10;;;;;;;6.82;0.90;;;20.70;99.90;;;;;;5070476;28;20208;-76
2021/12/06 04:10:42;;;;;;;8.63;1.20;;;20.70;99.90;;;;;;5070853;28;20189;-76
2021/12/06 04:13:13;;;;;;;5.93;1.00;;;20.70;99.90;;;;;;5070802;28;20196;-76
2021/12/06 04:15:44;;;;;;;8.30;1.00;;;20.80;99.90;;;;;;5072361;28;20228;-75
2021/12/06 04:18:15;;;;;;;8.20;1.42;;;20.70;99.90;;;;;;5067710;28;20224;-75
2021/12/06 04:20:47;;;;;;;11.32;1.20;;;20.80;99.90;;;;;;5063988;28;20272;-76
2021/12/06 04:23:19;;;;;;;8.85;1.45;;;20.70;99.90;;;;;;5066515;28;20234;-76
2021/12/06 04:25:50;;;;;;;6.30;1.05;;;20.70;99.90;;;;;;5065531;28;20192;-75
2021/12/06 04:28:21;;;;;;;3.70;0.98;;;20.80;99.90;;;;;;5069409;28;20193;-76
2021/12/06 04:30:53;;;;;;;6.65;1.20;;;20.80;99.90;;;;;;5062799;28;20255;-75
2021/12/06 04:33:23;;;;;;;6.35;1.17;;;20.90;99.90;;;;;;5067539;28;20644;-76
2021/12/06 04:35:54;;;;;;;5.90;1.00;;;20.90;99.90;;;;;;5073970;28;20262;-76
2021/12/06 04:38:30;;;;;;;7.30;1.17;;;20.90;99.90;;;;;;5064615;28;20197;-76
2021/12/06 04:41:03;;;;;;;4.30;1.05;;;20.90;99.90;;;;;;5068684;28;20204;-77
2021/12/06 04:43:35;;;;;;;7.03;1.20;;;20.90;99.90;;;;;;5065830;28;20216;-75
2021/12/06 04:46:06;;;;;;;5.03;0.95;;;20.90;99.90;;;;;;5063441;28;20215;-77
2021/12/06 04:48:37;;;;;;;6.07;1.13;;;20.90;99.90;;;;;;5068055;28;20531;-75
2021/12/06 04:51:08;;;;;;;6.60;1.02;;;20.90;99.90;;;;;;5064146;28;20194;-75
2021/12/06 04:53:43;;;;;;;7.30;1.10;;;20.90;99.90;;;;;;5072160;28;20193;-74
2021/12/06 04:56:20;;;;;;;6.15;0.90;;;20.90;99.90;;;;;;5069891;28;20219;-75
2021/12/06 04:58:57;;;;;;;4.05;0.90;;;20.90;99.90;;;;;;5060176;28;20235;-77
2021/12/06 05:01:34;;;;;;;5.55;1.20;;;21.00;99.90;;;;;;5068857;28;20668;-76
2021/12/06 05:04:10;;;;;;;7.65;1.02;;;21.00;99.90;;;;;;5067885;28;20245;-74
2021/12/06 05:06:42;;;;;;;6.53;1.23;;;21.00;99.90;;;;;;5072406;28;20195;-75
2021/12/06 05:09:18;;;;;;;4.78;0.95;;;21.10;99.90;;;;;;5070040;28;20239;-76
2021/12/06 05:11:49;;;;;;;4.68;0.95;;;21.00;99.90;;;;;;5068381;28;20193;-74
2021/12/06 05:14:20;;;;;;;6.60;1.20;;;21.10;99.90;;;;;;5072425;28;20188;-75
2021/12/06 05:16:51;;;;;;;5.90;1.08;;;21.10;99.90;;;;;;5073109;28;20552;-75
2021/12/06 05:19:22;;;;;;;7.97;1.00;;;21.10;99.90;;;;;;5072044;28;20200;-74
2021/12/06 05:21:52;;;;;;;5.10;1.00;;;21.10;99.90;;;;;;5056234;28;20192;-74
2021/12/06 05:24:25;;;;;;;8.65;1.10;;;21.10;99.90;;;;;;5060177;28;20197;-75
2021/12/06 05:26:58;;;;;;;8.10;1.63;;;21.20;99.90;;;;;;5066944;28;20198;-76
2021/12/06 05:29:33;;;;;;;7.45;1.20;;;21.20;99.90;;;;;;5070638;28;20272;-75
2021/12/06 05:32:05;;;;;;;7.03;1.30;;;21.20;99.90;;;;;;5071060;28;20663;-74
2021/12/06 05:34:38;;;;;;;5.22;1.15;;;21.20;99.90;;;;;;5062373;28;20190;-74
2021/12/06 05:37:14;;;;;;;3.72;0.95;;;21.20;99.90;;;;;;5070289;28;20205;-74
2021/12/06 05:39:47;;;;;;;4.72;0.90;;;21.20;99.90;;;;;;5064385;28;21692;-74
2021/12/06 05:42:18;;;;;;;6.03;1.20;;;21.20;99.90;;;;;;5070921;28;20664;-74
2021/12/06 05:44:49;;;;;;;4.05;1.00;;;21.20;99.90;;;;;;5060243;28;20204;-74
2021/12/06 05:47:20;;;;;;;6.30;1.30;;;21.10;99.90;;;;;;5070959;28;20649;-74
2021/12/06 05:49:50;;;;;;;7.18;1.00;;;21.00;99.90;;;;;;5065728;28;20540;-74
2021/12/06 05:52:21;;;;;;;7.05;1.05;;;21.10;99.90;;;;;;5073034;28;20185;-74
2021/12/06 05:54:54;;;;;;;5.93;1.25;;;21.00;99.90;;;;;;5072365;28;20193;-74
2021/12/06 05:57:24;;;;;;;7.07;1.30;;;21.00;99.90;;;;;;5070020;28;20262;-75
2021/12/06 05:59:55;;;;;;;7.50;1.30;;;21.00;99.90;;;;;;5071902;28;20232;-74
2021/12/06 06:02:26;;;;;;;7.60;1.73;;;21.00;99.90;;;;;;5068529;28;20196;-74
2021/12/06 06:05:00;;;;;;;10.68;3.72;;;21.00;99.90;;;;;;5055962;28;20193;-74
2021/12/06 06:07:31;;;;;;;6.10;1.45;;;21.00;99.90;;;;;;5062719;28;20192;-74
2021/12/06 06:10:08;;;;;;;5.03;1.13;;;20.90;99.90;;;;;;5059226;28;20200;-74
2021/12/06 06:12:38;;;;;;;8.98;1.30;;;20.90;99.90;;;;;;5065312;28;20197;-74
2021/12/06 06:15:10;;;;;;;8.77;1.80;;;20.90;99.90;;;;;;5068878;28;20547;-74
2021/12/06 06:17:43;;;;;;;6.45;1.58;;;20.90;99.90;;;;;;5068918;28;20193;-74
2021/12/06 06:20:16;;;;;;;6.25;1.38;;;20.90;99.90;;;;;;5060788;28;20192;-75
2021/12/06 06:22:47;;;;;;;8.25;1.20;;;20.90;99.90;;;;;;5065324;28;20211;-74
2021/12/06 06:25:20;;;;;;;6.88;1.17;;;20.90;99.90;;;;;;5056361;28;20687;-74
2021/12/06 06:27:51;;;;;;;7.75;1.52;;;20.90;99.90;;;;;;5055760;28;20197;-74
2021/12/06 06:30:21;;;;;;;8.60;1.40;;;20.80;99.90;;;;;;5067346;28;20196;-75
2021/12/06 06:32:52;;;;;;;5.43;1.23;;;20.80;99.90;;;;;;5069287;28;20193;-73
2021/12/06 06:35:23;;;;;;;6.38;1.20;;;20.90;99.90;;;;;;5070313;28;20181;-74
2021/12/06 06:37:55;;;;;;;7.95;1.10;;;20.90;99.90;;;;;;5063619;28;20189;-74
2021/12/06 06:40:27;;;;;;;7.40;1.23;;;20.80;99.90;;;;;;5071848;28;20193;-73
2021/12/06 06:42:58;;;;;;;8.00;1.25;;;20.80;99.90;;;;;;5062938;28;20270;-74
2021/12/06 06:45:32;;;;;;;5.97;1.27;;;20.80;99.90;;;;;;5068143;28;20641;-73
2021/12/06 06:48:03;;;;;;;5.07;1.15;;;20.80;99.90;;;;;;5065648;28;20192;-73
2021/12/06 06:50:36;;;;;;;6.30;1.13;;;20.70;99.90;;;;;;5072371;28;20208;-74
2021/12/06 06:53:10;;;;;;;5.57;1.00;;;20.70;99.90;;;;;;5071376;28;20188;-75
2021/12/06 06:55:43;;;;;;;7.25;1.30;;;20.70;99.90;;;;;;5057348;28;20527;-74
2021/12/06 06:58:13;;;;;;;7.85;1.30;;;20.70;99.90;;;;;;5066692;28;20251;-75
2021/12/06 07:00:44;;;;;;;6.50;1.10;;;20.70;99.90;;;;;;5066473;28;20221;-74
2021/12/06 07:03:17;;;;;;;7.28;1.15;;;20.70;99.90;;;;;;5053246;28;20189;-74
2021/12/06 07:05:48;;;;;;;6.90;1.20;;;20.70;99.90;;;;;;5066550;28;20190;-74
2021/12/06 07:08:19;;;;;;;6.28;1.10;;;20.70;99.90;;;;;;5068883;28;20207;-74
2021/12/06 07:10:54;;;;;;;8.15;1.52;;;20.70;99.90;;;;;;5064004;28;20634;-75
2021/12/06 07:13:26;;;;;;;8.63;1.80;;;20.70;99.90;;;;;;5060146;28;20217;-74
2021/12/06 07:15:57;;;;;;;7.85;1.20;;;20.60;99.90;;;;;;5062168;28;20213;-74
2021/12/06 07:18:30;;;;;;;5.43;1.25;;;20.60;99.90;;;;;;5071274;28;20208;-75
2021/12/06 07:21:01;;;;;;;6.88;1.33;;;20.60;99.90;;;;;;5057355;28;20196;-75
2021/12/06 07:23:33;;;;;;;7.93;1.70;;;20.60;99.90;;;;;;5054408;28;20244;-74
2021/12/06 07:26:06;;;;;;;7.32;1.30;;;20.50;99.90;;;;;;5071286;28;20193;-73
2021/12/06 07:28:36;;;;;;;7.93;1.08;;;20.50;99.90;;;;;;5064589;28;20300;-74
2021/12/06 07:31:09;;;;;;;6.07;1.30;;;20.60;99.90;;;;;;5062970;28;20189;-73
2021/12/06 07:33:39;;;;;;;6.93;1.30;;;20.60;99.90;;;;;;5067778;28;20197;-74
2021/12/06 07:36:11;;;;;;;5.95;0.98;;;20.60;99.90;;;;;;5066766;28;20220;-73
2021/12/06 07:38:42;;;;;;;6.50;1.05;;;20.60;99.90;;;;;;5075051;28;20188;-74
2021/12/06 07:41:17;;;;;;;6.15;1.00;;;20.60;99.90;;;;;;5061985;28;20246;-74
2021/12/06 07:43:47;;;;;;;4.13;1.00;;;20.50;99.90;;;;;;5059396;28;20196;-74
2021/12/06 07:46:18;;;;;;;6.00;1.40;;;20.50;99.90;;;;;;5073521;28;20702;-74
2021/12/06 07:48:52;;;;;;;7.68;1.30;;;20.50;99.90;;;;;;5066426;28;20189;-75
2021/12/06 07:51:24;;;;;;;8.85;1.25;;;20.40;99.90;;;;;;5071053;28;20549;-74
2021/12/06 07:53:57;;;;;;;3.08;1.00;;;20.40;99.90;;;;;;5056456;28;20604;-74
2021/12/06 07:56:30;;;;;;;6.07;1.10;;;20.40;99.90;;;;;;5070254;28;20251;-73
2021/12/06 07:59:01;;;;;;;5.90;1.10;;;20.40;99.90;;;;;;5073051;28;20223;-73
2021/12/06 08:01:31;;;;;;;5.13;1.23;;;20.40;99.90;;;;;;5074646;28;20196;-73
2021/12/06 08:04:05;;;;;;;8.38;1.25;;;20.30;99.90;;;;;;5067227;28;20182;-73
2021/12/06 08:06:37;;;;;;;4.60;1.00;;;20.30;99.90;;;;;;5073879;28;20204;-73
2021/12/06 08:09:08;;;;;;;4.78;0.95;;;20.30;99.90;;;;;;5070203;28;20197;-74
2021/12/06 08:11:41;;;;;;;5.78;1.10;;;20.30;99.90;;;;;;5063950;28;20192;-73
2021/12/06 08:14:12;;;;;;;4.22;1.13;;;20.30;99.90;;;;;;5066070;28;20193;-73
2021/12/06 08:16:44;;;;;;;6.10;0.90;;;20.20;99.90;;;;;;5073479;28;20228;-74
2021/12/06 08:19:16;;;;;;;5.40;1.05;;;20.20;99.90;;;;;;5069308;28;20583;-73
2021/12/06 08:21:46;;;;;;;6.40;1.30;;;20.10;99.90;;;;;;5065995;28;20193;-74
2021/12/06 08:24:17;;;;;;;7.68;1.13;;;20.10;99.90;;;;;;5071526;28;20655;-74
2021/12/06 08:26:50;;;;;;;5.50;1.15;;;20.10;99.90;;;;;;5069457;28;20548;-74
2021/12/06 08:29:22;;;;;;;7.95;1.20;;;20.10;99.90;;;;;;5061966;28;20238;-74
2021/12/06 08:31:52;;;;;;;4.63;0.90;;;20.10;99.90;;;;;;5072544;28;20235;-73
2021/12/06 08:34:23;;;;;;;10.85;1.48;;;20.00;99.90;;;;;;5068883;28;20642;-74
2021/12/06 08:36:54;;;;;;;6.03;1.17;;;20.00;99.90;;;;;;5071687;28;20204;-74
2021/12/06 08:39:24;;;;;;;8.35;1.20;;;20.00;99.90;;;;;;5071383;28;20200;-73
2021/12/06 08:41:57;;;;;;;6.72;1.20;;;19.90;99.90;;;;;;5069710;28;20274;-73
2021/12/06 08:44:27;;;;;;;5.97;1.10;;;19.90;99.90;;;;;;5067475;28;20188;-74
2021/12/06 08:47:02;;;;;;;8.82;1.15;;;19.90;99.90;;;;;;5067923;28;20185;-74
2021/12/06 08:49:33;;;;;;;8.23;1.30;;;19.90;99.90;;;;;;5055940;28;20286;-74
2021/12/06 08:52:05;;;;;;;5.18;1.08;;;19.80;99.90;;;;;;5070067;28;20192;-73
2021/12/06 08:54:37;;;;;;;5.13;1.00;;;19.80;99.90;;;;;;5068484;28;20193;-75
2021/12/06 08:57:11;;;;;;;5.43;1.00;;;19.80;99.90;;;;;;5071678;28;20212;-75
2021/12/06 08:59:44;;;;;;;7.78;1.23;;;19.80;99.90;;;;;;5073423;28;20227;-74
2021/12/06 09:02:16;;;;;;;6.03;1.15;;;19.80;99.90;;;;;;5073519;28;20676;-74
2021/12/06 09:04:48;;;;;;;6.80;1.25;;;19.80;99.90;;;;;;5073255;28;20189;-74
2021/12/06 09:07:19;;;;;;;8.00;1.10;;;19.80;99.90;;;;;;5067888;28;20189;-75
2021/12/06 09:09:55;;;;;;;8.30;1.13;;;19.70;99.90;;;;;;5067233;28;20555;-75
2021/12/06 09:12:30;;;;;;;5.45;1.08;;;19.80;99.90;;;;;;5073546;28;20195;-74
2021/12/06 09:15:03;;;;;;;6.80;1.20;;;19.80;99.90;;;;;;5058724;28;20645;-75
2021/12/06 09:17:33;;;;;;;8.60;1.33;;;19.70;99.90;;;;;;5068259;28;20213;-75
2021/12/06 09:20:05;;;;;;;4.80;1.08;;;19.70;99.90;;;;;;5068578;28;20553;-75
2021/12/06 09:22:36;;;;;;;3.70;0.93;;;19.70;99.90;;;;;;5072690;28;20224;-75
2021/12/06 09:25:10;;;;;;;6.93;1.00;;;19.70;99.90;;;;;;5065222;28;20266;-75
2021/12/06 09:27:43;;;;;;;7.22;1.20;;;19.70;99.90;;;;;;5061612;28;20319;-75
2021/12/06 09:30:15;;;;;;;3.78;1.20;;;19.70;99.90;;;;;;5057380;28;20682;-75
2021/12/06 09:32:47;;;;;;;5.20;1.13;;;19.60;99.90;;;;;;5069308;28;20190;-74
2021/12/06 09:35:22;;;;;;;6.57;1.30;;;19.70;99.90;;;;;;5064396;28;20576;-74
2021/12/06 09:37:53;;;;;;;6.38;1.02;;;19.70;99.90;;;;;;5069209;28;20212;-74
2021/12/06 09:40:25;;;;;;;6.35;1.10;;;19.70;99.90;;;;;;5065299;28;20237;-75
2021/12/06 09:42:58;;;;;;;7.25;1.30;;;19.60;99.90;;;;;;5062390;28;20223;-74
2021/12/06 09:45:32;;;;;;;6.82;1.35;;;19.60;99.90;;;;;;5065999;28;20189;-74
2021/12/06 09:48:04;;;;;;;7.60;1.35;;;19.60;99.90;;;;;;5065009;28;20193;-74
2021/12/06 09:50:40;;;;;;;7.25;1.33;;;19.60;99.90;;;;;;5066730;28;20190;-75
2021/12/06 09:53:13;;;;;;;7.13;1.27;;;19.60;99.90;;;;;;5060578;28;20200;-74
2021/12/06 09:55:45;;;;;;;6.05;1.30;;;19.60;99.90;;;;;;5068633;28;20201;-74
2021/12/06 09:58:18;;;;;;;8.05;1.30;;;19.60;99.90;;;;;;5072088;28;20217;-74
2021/12/06 10:00:54;;;;;;;7.03;1.20;;;19.60;99.90;;;;;;5071408;28;20232;-75
2021/12/06 10:03:28;;;;;;;6.40;1.27;;;19.60;99.90;;;;;;5060332;28;20190;-75
2021/12/06 10:06:04;;;;;;;5.50;1.13;;;19.50;99.90;;;;;;5052832;28;20548;-74
2021/12/06 10:08:39;;;;;;;3.15;1.00;;;19.50;99.90;;;;;;5059192;28;20199;-75
2021/12/06 10:11:11;;;;;;;6.00;1.30;;;19.50;99.90;;;;;;5053884;28;20205;-74
2021/12/06 10:13:45;;;;;;;6.57;1.13;;;19.50;99.90;;;;;;5063349;28;20182;-74
2021/12/06 10:16:16;;;;;;;3.88;0.93;;;19.50;99.90;;;;;;5071048;28;20192;-75
2021/12/06 10:18:47;;;;;;;3.40;1.10;;;19.50;99.90;;;;;;5065089;28;20212;-74
2021/12/06 10:21:18;;;;;;;5.32;1.17;;;19.50;99.90;;;;;;5069162;28;20193;-74
2021/12/06 10:23:49;;;;;;;6.78;1.30;;;19.50;99.90;;;;;;5071850;28;20181;-75
2021/12/06 10:26:23;;;;;;;6.88;1.27;;;19.50;99.90;;;;;;5064937;28;20197;-74
2021/12/06 10:29:06;;;;;;;6.32;1.20;;;19.50;99.90;;;;;;5059645;28;20200;-74
2021/12/06 10:31:50;;;;;;;4.88;1.02;;;19.40;99.90;;;;;;5070075;28;20236;-74
2021/12/06 10:34:24;;;;;;;6.30;1.73;;;19.40;99.90;;;;;;5062666;28;20646;-74
2021/12/06 10:36:56;;;;;;;6.13;1.63;;;19.30;99.90;;;;;;5071045;28;20230;-75
2021/12/06 10:39:27;;;;;;;5.60;1.20;;;19.30;99.90;;;;;;5069084;28;20189;-75
2021/12/06 10:42:01;;;;;;;5.68;1.65;;;19.30;99.90;;;;;;5057984;28;20225;-75
2021/12/06 10:45:06;;;;;;;6.28;1.35;;;19.30;99.90;;;;;;5052669;28;20204;-74
2021/12/06 10:47:37;;;;;;;6.68;1.30;;;19.20;99.90;;;;;;5068992;28;20194;-74
2021/12/06 10:50:13;;;;;;;4.10;1.00;;;19.20;99.90;;;;;;5066792;28;20193;-74
2021/12/06 10:53:00;;;;;;;6.53;1.35;;;19.20;99.90;;;;;;5063480;28;20655;-75
2021/12/06 10:55:44;;;;;;;5.53;1.27;;;19.20;99.90;;;;;;5064692;28;20526;-74
2021/12/06 10:58:30;;;;;;;5.88;1.35;;;19.10;99.90;;;;;;5060320;28;20244;-75
2021/12/06 11:01:07;;;;;;;6.88;1.30;;;19.10;99.90;;;;;;5055958;28;20269;-75
2021/12/06 11:03:44;;;;;;;4.35;1.25;;;19.00;99.90;;;;;;5063899;28;20663;-75
2021/12/06 11:06:19;;;;;;;3.38;1.52;;;19.00;99.90;;;;;;5064888;28;20553;-75
2021/12/06 11:08:51;;;;;;;4.78;1.60;;;19.00;99.90;;;;;;5053879;28;20193;-75
2021/12/06 11:11:27;;;;;;;7.65;1.40;;;19.00;99.90;;;;;;5054123;28;20189;-75
2021/12/06 11:14:01;;;;;;;8.57;1.50;;;19.00;99.90;;;;;;5069176;28;20553;-75
2021/12/06 11:16:36;;;;;;;6.05;1.42;;;19.00;99.90;;;;;;5072959;28;20188;-75
2021/12/06 11:19:08;;;;;;;5.25;1.30;;;19.00;99.90;;;;;;5064861;28;20213;-75
2021/12/06 11:21:42;;;;;;;6.47;1.48;;;19.00;99.90;;;;;;5075087;28;20189;-75
2021/12/06 11:24:21;;;;;;;5.18;1.30;;;19.00;99.90;;;;;;5066817;28;20196;-75
2021/12/06 11:26:58;;;;;;;5.68;1.30;;;19.00;99.90;;;;;;5064605;28;20192;-74
2021/12/06 11:29:34;;;;;;;8.70;1.60;;;19.00;99.90;;;;;;5072935;28;20242;-74
2021/12/06 11:32:12;;;;;;;8.00;1.50;;;18.90;99.90;;;;;;5067839;28;20184;-74
2021/12/06 11:34:46;;;;;;;4.95;1.40;;;18.90;99.90;;;;;;5072885;28;20188;-74
2021/12/06 11:37:20;;;;;;;5.65;1.77;;;18.80;99.90;;;;;;5074769;28;20215;-75
2021/12/06 11:39:53;;;;;;;8.55;1.35;;;18.80;99.90;;;;;;5071973;28;20209;-74
2021/12/06 11:42:23;;;;;;;4.70;1.05;;;18.80;99.90;;;;;;5069757;28;20224;-74
2021/12/06 11:44:54;;;;;;;8.13;1.23;;;18.80;99.90;;;;;;5068636;28;20182;-74
2021/12/06 11:47:27;;;;;;;6.38;1.60;;;18.80;99.90;;;;;;5057965;28;20186;-75
2021/12/06 11:50:00;;;;;;;6.70;2.00;;;18.80;99.90;;;;;;5074521;28;20523;-74
2021/12/06 11:52:36;;;;;;;9.57;1.67;;;18.80;99.90;;;;;;5074623;28;20189;-74
2021/12/06 11:55:10;;;;;;;6.28;1.48;;;18.80;99.90;;;;;;5061921;28;20197;-74
2021/12/06 11:57:43;;;;;;;5.38;1.50;;;18.90;99.90;;;;;;5068711;28;20553;-74
2021/12/06 12:00:19;;;;;;;5.93;1.40;;;18.90;99.90;;;;;;5065249;28;20229;-75
2021/12/06 12:02:53;;;;;;;4.13;1.40;;;18.90;99.90;;;;;;5073630;28;20238;-75
2021/12/06 12:05:31;;;;;;;6.25;1.60;;;18.90;99.90;;;;;;5074851;28;20193;-74
2021/12/06 12:08:12;;;;;;;6.47;1.40;;;18.90;99.90;;;;;;5073866;28;20181;-74
2021/12/06 12:10:46;;;;;;;6.78;1.33;;;18.90;99.90;;;;;;5072234;28;20192;-75
2021/12/06 12:13:25;;;;;;;7.57;1.52;;;19.00;99.90;;;;;;5072434;28;20250;-74
2021/12/06 12:15:58;;;;;;;6.47;1.50;;;18.90;99.90;;;;;;5071059;28;20193;-75
2021/12/06 12:18:30;;;;;;;6.43;1.52;;;18.90;99.90;;;;;;5074305;28;20243;-75
2021/12/06 12:21:01;;;;;;;6.60;1.40;;;18.90;99.90;;;;;;5060304;28;20185;-75
2021/12/06 12:23:33;;;;;;;8.15;1.50;;;18.90;99.90;;;;;;5062326;28;20208;-74
2021/12/06 12:26:11;;;;;;;5.45;1.30;;;18.80;99.90;;;;;;5073739;28;20191;-75
2021/12/06 12:28:51;;;;;;;7.97;1.50;;;18.80;99.90;;;;;;5057972;28;20189;-75
2021/12/06 12:31:24;;;;;;;6.70;1.58;;;18.90;99.90;;;;;;5067031;28;20185;-75
2021/12/06 12:33:58;;;;;;;5.28;1.40;;;18.80;99.90;;;;;;5063807;28;20277;-75
2021/12/06 12:36:34;;;;;;;5.53;1.30;;;18.90;99.90;;;;;;5061205;28;20261;-75
2021/12/06 12:39:05;;;;;;;5.20;1.30;;;18.90;99.90;;;;;;5073374;28;20582;-74
2021/12/06 12:41:37;;;;;;;6.15;1.60;;;18.90;99.90;;;;;;5072163;28;20267;-75
2021/12/06 12:44:09;;;;;;;4.90;1.40;;;18.90;99.90;;;;;;5065813;28;20284;-75
2021/12/06 12:46:44;;;;;;;6.95;1.73;;;18.90;99.90;;;;;;5066431;28;20248;-74
2021/12/06 12:49:18;;;;;;;7.80;1.52;;;18.90;99.90;;;;;;5071620;28;20246;-75
2021/12/06 12:51:51;;;;;;;7.72;1.65;;;18.90;99.90;;;;;;5072811;28;20189;-75
2021/12/06 12:54:25;;;;;;;5.63;1.40;;;18.90;99.90;;;;;;5072412;28;20181;-75
2021/12/06 12:56:59;;;;;;;6.10;1.70;;;18.90;99.90;;;;;;5072315;28;20192;-75
2021/12/06 12:59:33;;;;;;;6.20;1.83;;;18.90;99.90;;;;;;5071993;28;20316;-75
2021/12/06 13:02:34;;;;;;;4.25;1.50;;;18.90;99.90;;;;;;5054698;28;20246;-75
2021/12/06 13:05:25;;;;;;;5.40;1.63;;;18.90;99.90;;;;;;5065759;28;20219;-75
2021/12/06 13:08:11;;;;;;;11.38;1.48;;;18.90;99.90;;;;;;5072913;28;20193;-75
2021/12/06 13:10:59;;;;;;;8.35;1.70;;;18.90;99.90;;;;;;5072562;28;20220;-75
2021/12/06 13:13:41;;;;;;;7.20;1.40;;;18.90;99.90;;;;;;5066481;28;20189;-75
2021/12/06 13:16:36;;;;;;;6.97;1.90;;;18.80;99.90;;;;;;5070563;28;20181;-74
2021/12/06 13:19:21;;;;;;;4.40;1.50;;;18.80;99.90;;;;;;5060957;28;20300;-75
2021/12/06 13:22:07;;;;;;;5.68;1.58;;;18.80;99.90;;;;;;5065372;28;20194;-75
2021/12/06 13:24:50;;;;;;;6.95;1.63;;;18.80;99.90;;;;;;5063690;28;20212;-75